Time;durP1;ratioP1;P1;durP2;ratioP2;P2;SDS_P1;SDS_P2;PMS_P1;PMS_P2;Temp;Humidity;BMP_temperature;BMP_pressure;BME280_temperature;BME280_humidity;BME280_pressure;Samples;Min_cycle;Max_cycle;Signal;HPM_P1;HPM_P2
2021/07/12 00:01:54;;;;;;;9.93;7.47;;;18.00;99.90;;;;;;4977639;28;20046;-90
2021/07/12 00:04:20;;;;;;;24.63;8.05;;;18.00;99.90;;;;;;4974563;28;20043;-89
2021/07/12 00:06:46;;;;;;;13.68;7.95;;;18.00;99.90;;;;;;4967950;28;20057;-89
2021/07/12 00:09:12;;;;;;;11.77;7.65;;;18.00;99.90;;;;;;4937240;28;20089;-88
2021/07/12 00:11:37;;;;;;;13.02;8.00;;;18.00;99.90;;;;;;4960324;28;20070;-89
2021/07/12 00:14:03;;;;;;;14.32;8.90;;;18.00;99.90;;;;;;4970600;28;20089;-90
2021/07/12 00:16:29;;;;;;;11.00;9.80;;;17.90;99.90;;;;;;4939125;28;20471;-89
2021/07/12 00:18:55;;;;;;;11.05;9.88;;;17.90;99.90;;;;;;4957673;28;20070;-92
2021/07/12 00:21:21;;;;;;;11.02;6.28;;;17.80;99.90;;;;;;4971976;28;20070;-90
2021/07/12 00:23:49;;;;;;;8.18;6.93;;;17.70;99.90;;;;;;4970963;28;20035;-90
2021/07/12 00:26:15;;;;;;;8.25;7.45;;;17.70;99.90;;;;;;4954978;28;20050;-89
2021/07/12 00:28:41;;;;;;;15.02;9.70;;;17.60;99.90;;;;;;4960274;28;20039;-90
2021/07/12 00:31:07;;;;;;;10.15;9.02;;;17.60;99.90;;;;;;4954673;28;20055;-89
2021/07/12 00:33:33;;;;;;;10.00;9.10;;;17.60;99.90;;;;;;4987132;28;20039;-88
2021/07/12 00:36:00;;;;;;;11.05;9.07;;;17.50;99.90;;;;;;4951330;28;20676;-88
2021/07/12 00:38:26;;;;;;;14.52;9.35;;;17.50;99.90;;;;;;4976721;28;20503;-88
2021/07/12 00:40:52;;;;;;;9.77;7.82;;;17.40;99.90;;;;;;4973942;28;20114;-89
2021/07/12 00:43:18;;;;;;;11.00;9.30;;;17.40;99.90;;;;;;4955669;28;20049;-89
2021/07/12 00:45:44;;;;;;;11.70;9.23;;;17.30;99.90;;;;;;4981212;28;20039;-88
2021/07/12 00:48:10;;;;;;;9.25;8.40;;;17.30;99.90;;;;;;4966959;28;20050;-88
2021/07/12 00:50:39;;;;;;;10.95;9.85;;;17.20;99.90;;;;;;4971673;28;20042;-88
2021/07/12 00:53:06;;;;;;;8.57;7.68;;;17.20;99.90;;;;;;4973453;28;20054;-88
2021/07/12 00:55:42;;;;;;;11.50;7.50;;;17.10;99.90;;;;;;4974451;28;20053;-88
2021/07/12 00:58:10;;;;;;;17.30;10.50;;;17.10;99.90;;;;;;4975170;28;20042;-89
2021/07/12 01:00:37;;;;;;;11.98;9.20;;;17.10;99.90;;;;;;4989443;28;20042;-88
2021/07/12 01:03:04;;;;;;;10.75;9.60;;;17.00;99.90;;;;;;4975506;28;20053;-90
2021/07/12 01:05:31;;;;;;;16.58;11.00;;;16.90;99.90;;;;;;4959473;28;20051;-89
2021/07/12 01:08:00;;;;;;;14.77;11.88;;;16.90;99.90;;;;;;4977938;28;20046;-89
2021/07/12 01:10:29;;;;;;;14.45;8.90;;;16.90;99.90;;;;;;4996069;28;20060;-89
2021/07/12 01:13:01;;;;;;;12.90;9.23;;;16.80;99.90;;;;;;4961871;28;20127;-87
2021/07/12 01:15:34;;;;;;;14.80;10.55;;;16.70;99.90;;;;;;4988515;28;20038;-87
2021/07/12 01:18:11;;;;;;;12.23;11.00;;;16.70;99.90;;;;;;4963635;28;20039;-91
2021/07/12 01:21:04;;;;;;;8.98;7.43;;;16.70;99.90;;;;;;4977310;28;20046;-88
2021/07/12 01:23:58;;;;;;;13.32;10.73;;;16.60;99.90;;;;;;4987644;28;20046;-88
2021/07/12 01:26:54;;;;;;;12.60;11.02;;;16.60;99.90;;;;;;4958003;28;20065;-87
2021/07/12 01:29:29;;;;;;;20.75;14.07;;;16.60;99.90;;;;;;4956679;28;20577;-88
2021/07/12 01:32:29;;;;;;;17.85;14.93;;;16.60;99.90;;;;;;4976742;28;20050;-87
2021/07/12 01:35:00;;;;;;;21.05;17.27;;;16.60;99.90;;;;;;4994229;28;20046;-87
2021/07/12 01:37:40;;;;;;;26.65;18.23;;;16.50;99.90;;;;;;4993773;28;20066;-88
2021/07/12 01:40:23;;;;;;;25.63;19.88;;;16.50;99.90;;;;;;5007626;28;20046;-88
2021/07/12 01:43:02;;;;;;;30.92;20.15;;;16.60;99.90;;;;;;4977201;28;20038;-87
2021/07/12 01:45:35;;;;;;;14.23;12.73;;;16.50;99.90;;;;;;5005068;28;20042;-90
2021/07/12 01:48:09;;;;;;;22.80;13.57;;;16.50;99.90;;;;;;4975465;28;20049;-91
2021/07/12 01:50:51;;;;;;;13.32;10.77;;;16.50;99.90;;;;;;4976559;28;20517;-88
2021/07/12 01:53:27;;;;;;;13.95;10.85;;;16.40;99.90;;;;;;4993569;28;20039;-87
2021/07/12 01:55:58;;;;;;;17.25;12.50;;;16.40;99.90;;;;;;4993491;28;20113;-87
2021/07/12 01:58:30;;;;;;;20.85;13.27;;;16.30;99.90;;;;;;4993248;28;20038;-88
2021/07/12 02:00:56;;;;;;;14.98;11.50;;;16.30;99.90;;;;;;4973230;28;20039;-89
2021/07/12 02:03:23;;;;;;;16.48;13.27;;;16.30;99.90;;;;;;4988287;28;20156;-87
2021/07/12 02:05:50;;;;;;;26.23;16.85;;;16.30;99.90;;;;;;4969533;28;20047;-88
2021/07/12 02:08:21;;;;;;;27.85;17.95;;;16.30;99.90;;;;;;4966139;28;20058;-87
2021/07/12 02:10:50;;;;;;;35.83;21.38;;;16.30;99.90;;;;;;4985716;28;20057;-89
2021/07/12 02:13:18;;;;;;;54.22;30.10;;;16.40;99.90;;;;;;4973348;28;20050;-88
2021/07/12 02:15:46;;;;;;;43.85;27.23;;;16.40;99.90;;;;;;4956816;28;20081;-87
2021/07/12 02:18:14;;;;;;;53.30;29.40;;;16.50;99.90;;;;;;4972043;28;20055;-90
2021/07/12 02:20:43;;;;;;;57.78;32.70;;;16.50;99.90;;;;;;4950657;28;20039;-88
2021/07/12 02:23:09;;;;;;;62.38;33.22;;;16.50;99.90;;;;;;4964972;28;20505;-88
2021/07/12 02:25:35;;;;;;;39.60;24.98;;;16.40;99.90;;;;;;4980135;28;20051;-87
2021/07/12 02:28:03;;;;;;;56.88;29.70;;;16.40;99.90;;;;;;4957306;28;20038;-87
2021/07/12 02:30:29;;;;;;;51.58;28.92;;;16.40;99.90;;;;;;4973258;28;20553;-88
2021/07/12 02:32:56;;;;;;;66.80;36.03;;;16.40;99.90;;;;;;4956377;28;20137;-88
2021/07/12 02:35:23;;;;;;;68.45;35.67;;;16.40;99.90;;;;;;4956398;28;20042;-88
2021/07/12 02:37:50;;;;;;;93.90;41.95;;;16.50;99.90;;;;;;4957466;28;20438;-88
2021/07/12 02:40:19;;;;;;;103.35;47.53;;;16.60;99.90;;;;;;4989848;28;20039;-90
2021/07/12 02:42:50;;;;;;;101.45;46.88;;;16.70;99.90;;;;;;4973837;28;20487;-87
2021/07/12 02:45:17;;;;;;;112.22;48.95;;;16.70;99.90;;;;;;4961001;28;20114;-88
2021/07/12 02:47:44;;;;;;;101.75;49.08;;;16.80;99.90;;;;;;4973701;28;20394;-88
2021/07/12 02:50:11;;;;;;;112.13;50.75;;;16.80;99.90;;;;;;4971578;28;20042;-91
2021/07/12 02:53:06;;;;;;;121.40;50.17;;;16.90;99.90;;;;;;4963384;28;20079;-88
2021/07/12 02:55:32;;;;;;;61.97;25.17;;;16.90;99.90;;;;;;4971774;28;20546;-88
2021/07/12 02:57:58;;;;;;;53.05;29.23;;;16.70;99.90;;;;;;4971878;28;20047;-88
2021/07/12 03:00:24;;;;;;;47.72;26.95;;;16.70;99.90;;;;;;4971614;28;20090;-89
2021/07/12 03:02:50;;;;;;;47.22;26.35;;;16.70;99.90;;;;;;4956055;28;20557;-88
2021/07/12 03:05:16;;;;;;;41.60;16.30;;;16.70;99.90;;;;;;4972527;28;20046;-90
2021/07/12 03:07:55;;;;;;;38.83;15.48;;;16.60;99.90;;;;;;4971715;28;20384;-88
2021/07/12 03:10:27;;;;;;;44.22;24.77;;;16.60;99.90;;;;;;4980865;28;20116;-88
2021/07/12 03:13:00;;;;;;;43.80;23.55;;;16.60;99.90;;;;;;4972221;28;20043;-88
2021/07/12 03:15:44;;;;;;;35.30;22.10;;;16.60;99.90;;;;;;4971084;28;20121;-89
2021/07/12 03:18:31;;;;;;;40.92;24.50;;;16.50;99.90;;;;;;4960005;28;20121;-88
2021/07/12 03:21:03;;;;;;;39.00;23.52;;;16.60;99.90;;;;;;4972712;28;20038;-87
2021/07/12 03:23:39;;;;;;;37.22;21.40;;;16.60;99.90;;;;;;4972249;28;20053;-88
2021/07/12 03:26:07;;;;;;;34.85;17.42;;;16.60;99.90;;;;;;4972574;28;20051;-88
2021/07/12 03:28:36;;;;;;;41.80;23.67;;;16.60;99.90;;;;;;4973406;28;20042;-88
2021/07/12 03:31:03;;;;;;;36.40;23.05;;;16.60;99.90;;;;;;4972454;28;20046;-88
2021/07/12 03:33:31;;;;;;;49.25;28.70;;;16.60;99.90;;;;;;4956167;28;20559;-87
2021/07/12 03:35:58;;;;;;;55.20;28.35;;;16.70;99.90;;;;;;4973086;28;20046;-88
2021/07/12 03:38:24;;;;;;;74.18;37.53;;;16.70;99.90;;;;;;4974198;28;20054;-88
2021/07/12 03:40:51;;;;;;;46.00;28.13;;;16.80;99.90;;;;;;4972899;28;20035;-88
2021/07/12 03:43:17;;;;;;;65.18;34.45;;;16.80;99.90;;;;;;4977348;28;20390;-88
2021/07/12 03:45:56;;;;;;;69.35;36.80;;;16.80;99.90;;;;;;4992506;28;20046;-87
2021/07/12 03:48:46;;;;;;;60.55;32.90;;;16.90;99.90;;;;;;4987671;28;20047;-90
2021/07/12 03:51:24;;;;;;;61.10;34.03;;;16.90;99.90;;;;;;4972680;28;20126;-93
2021/07/12 03:53:50;;;;;;;74.60;39.00;;;17.00;99.90;;;;;;4973276;28;20042;-89
2021/07/12 03:56:16;;;;;;;66.05;34.65;;;17.00;99.90;;;;;;4974410;28;20043;-89
2021/07/12 03:58:43;;;;;;;87.75;41.85;;;17.00;99.90;;;;;;4955704;28;20093;-88
2021/07/12 04:01:09;;;;;;;73.05;37.80;;;17.00;99.90;;;;;;4971672;28;20053;-87
2021/07/12 04:03:35;;;;;;;91.85;45.03;;;17.10;99.90;;;;;;4971676;28;20818;-88
2021/07/12 04:06:03;;;;;;;83.85;43.85;;;17.10;99.90;;;;;;4964711;28;20073;-87
2021/07/12 04:08:29;;;;;;;74.55;37.65;;;17.20;99.90;;;;;;4991830;28;20069;-88
2021/07/12 04:10:55;;;;;;;91.53;45.95;;;17.30;99.90;;;;;;4973818;28;20057;-88
2021/07/12 04:13:21;;;;;;;100.80;48.55;;;17.30;99.90;;;;;;4959375;28;20039;-88
2021/07/12 04:15:47;;;;;;;58.42;32.67;;;17.40;99.90;;;;;;4943080;28;20479;-88
2021/07/12 04:18:13;;;;;;;63.80;34.85;;;17.40;99.90;;;;;;4966322;28;20049;-91
2021/07/12 04:20:41;;;;;;;84.63;34.92;;;17.50;99.90;;;;;;4963198;28;20038;-88
2021/07/12 04:23:09;;;;;;;225.93;58.92;;;17.60;99.90;;;;;;4976335;28;20039;-89
2021/07/12 04:25:35;;;;;;;94.20;41.55;;;17.70;99.90;;;;;;4958563;28;20113;-88
2021/07/12 04:28:01;;;;;;;94.65;33.95;;;17.80;99.90;;;;;;4943758;28;20077;-87
2021/07/12 04:30:27;;;;;;;101.50;40.95;;;17.80;99.90;;;;;;4958529;28;20305;-88
2021/07/12 04:32:53;;;;;;;79.65;39.53;;;18.00;99.90;;;;;;4945090;28;20066;-88
2021/07/12 04:35:19;;;;;;;29.15;20.80;;;18.00;99.90;;;;;;4954446;28;20048;-89
2021/07/12 04:37:45;;;;;;;22.98;17.52;;;18.10;99.90;;;;;;4976049;28;20085;-88
2021/07/12 04:40:11;;;;;;;28.42;20.88;;;18.10;99.90;;;;;;4976531;28;20078;-90
2021/07/12 04:42:37;;;;;;;36.72;24.73;;;18.20;99.90;;;;;;4960200;28;20038;-88
2021/07/12 04:45:04;;;;;;;45.55;28.35;;;18.30;99.90;;;;;;4961235;28;20043;-89
2021/07/12 04:47:30;;;;;;;32.97;23.88;;;18.30;99.90;;;;;;4944574;28;20129;-89
2021/07/12 04:49:56;;;;;;;33.47;23.30;;;18.30;99.90;;;;;;4975871;28;20039;-89
2021/07/12 04:52:22;;;;;;;34.47;25.05;;;18.30;99.90;;;;;;4978948;28;20092;-89
2021/07/12 04:54:49;;;;;;;39.80;28.30;;;18.30;99.90;;;;;;4978240;28;20042;-89
2021/07/12 04:57:15;;;;;;;35.03;25.50;;;18.30;99.90;;;;;;4959455;28;20050;-89
2021/07/12 04:59:42;;;;;;;39.00;28.30;;;18.40;99.90;;;;;;4975735;28;20394;-87
2021/07/12 05:02:09;;;;;;;38.10;29.10;;;18.30;99.90;;;;;;4959214;28;20051;-90
2021/07/12 05:04:36;;;;;;;30.73;24.77;;;18.40;99.90;;;;;;4976274;28;20053;-88
2021/07/12 05:07:03;;;;;;;39.70;28.05;;;18.30;99.90;;;;;;4975069;28;20043;-89
2021/07/12 05:09:29;;;;;;;33.58;26.38;;;18.30;99.90;;;;;;4965687;28;20384;-89
2021/07/12 05:11:56;;;;;;;40.72;28.85;;;18.30;99.90;;;;;;4960746;28;20057;-90
2021/07/12 05:14:24;;;;;;;38.08;28.58;;;18.30;99.90;;;;;;4976451;28;20490;-89
2021/07/12 05:16:50;;;;;;;48.60;29.48;;;18.30;99.90;;;;;;4977048;28;20402;-88
2021/07/12 05:19:17;;;;;;;45.75;31.17;;;18.30;99.90;;;;;;4964575;28;20070;-89
2021/07/12 05:21:43;;;;;;;40.30;30.08;;;18.20;99.90;;;;;;4952333;28;20047;-90
2021/07/12 05:24:09;;;;;;;40.03;29.10;;;18.20;99.90;;;;;;4955286;28;20054;-90
2021/07/12 05:26:35;;;;;;;45.70;31.90;;;18.20;99.90;;;;;;4977370;28;20048;-89
2021/07/12 05:29:01;;;;;;;33.92;25.15;;;18.10;99.90;;;;;;4943369;28;20042;-90
2021/07/12 05:31:27;;;;;;;28.38;22.90;;;18.10;99.90;;;;;;4974391;28;20046;-89
2021/07/12 05:33:53;;;;;;;33.33;24.38;;;18.20;99.90;;;;;;4975819;28;20069;-91
2021/07/12 05:36:19;;;;;;;31.45;23.02;;;18.30;99.90;;;;;;4997509;28;20089;-92
2021/07/12 05:38:45;;;;;;;28.63;21.92;;;18.30;99.90;;;;;;4988463;28;20209;-89
2021/07/12 05:41:11;;;;;;;29.10;23.02;;;18.40;99.90;;;;;;4961069;28;20046;-90
2021/07/12 05:43:36;;;;;;;37.92;23.60;;;18.50;99.90;;;;;;4976675;28;20073;-90
2021/07/12 05:46:04;;;;;;;42.20;26.13;;;18.50;99.90;;;;;;4987196;28;20050;-88
2021/07/12 05:48:30;;;;;;;33.47;21.23;;;18.50;99.90;;;;;;4976306;28;20120;-90
2021/07/12 05:50:56;;;;;;;27.38;19.27;;;18.60;99.90;;;;;;4977094;28;20077;-91
2021/07/12 05:53:22;;;;;;;37.67;24.73;;;18.60;99.90;;;;;;4977654;28;20043;-91
2021/07/12 05:55:48;;;;;;;56.35;26.70;;;18.60;99.90;;;;;;4976592;28;20495;-92
2021/07/12 05:58:14;;;;;;;40.15;27.35;;;18.60;99.90;;;;;;4976366;28;20053;-88
2021/07/12 06:00:40;;;;;;;51.78;27.00;;;18.50;99.90;;;;;;4993024;28;20133;-88
2021/07/12 06:03:06;;;;;;;67.57;26.88;;;18.60;99.90;;;;;;4965041;28;20403;-90
2021/07/12 06:05:33;;;;;;;44.20;29.77;;;18.60;99.90;;;;;;4993912;28;20042;-88
2021/07/12 06:07:59;;;;;;;37.03;26.90;;;18.70;99.90;;;;;;4974662;28;20065;-89
2021/07/12 06:10:25;;;;;;;34.42;24.60;;;18.80;99.90;;;;;;4972470;28;20059;-90
2021/07/12 06:12:51;;;;;;;39.92;25.77;;;19.00;99.90;;;;;;4988952;28;20085;-87
2021/07/12 06:15:17;;;;;;;36.50;23.85;;;19.10;99.90;;;;;;4992908;28;20470;-89
2021/07/12 06:17:44;;;;;;;24.30;19.85;;;19.20;99.90;;;;;;4963548;28;20042;-88
2021/07/12 06:20:14;;;;;;;31.77;22.88;;;19.40;99.90;;;;;;4981473;28;20034;-89
2021/07/12 06:22:39;;;;;;;27.67;21.73;;;19.60;99.90;;;;;;4976122;28;20050;-88
2021/07/12 06:25:06;;;;;;;28.70;22.30;;;19.70;99.90;;;;;;4976286;28;20076;-89
2021/07/12 06:27:31;;;;;;;25.63;19.52;;;20.00;99.90;;;;;;5001000;28;20069;-88
2021/07/12 06:29:58;;;;;;;26.20;20.17;;;20.20;99.90;;;;;;4967933;28;20066;-87
2021/07/12 06:32:24;;;;;;;21.23;18.63;;;20.40;99.90;;;;;;4976739;28;20043;-88
2021/07/12 06:34:49;;;;;;;20.23;18.17;;;20.60;99.90;;;;;;4951186;28;20088;-87
2021/07/12 06:37:15;;;;;;;22.08;19.45;;;20.70;99.90;;;;;;4992451;28;20065;-89
2021/07/12 06:39:41;;;;;;;25.33;21.52;;;20.90;99.90;;;;;;4960914;28;20045;-89
2021/07/12 06:42:07;;;;;;;25.52;20.50;;;21.00;99.90;;;;;;4956283;28;20038;-89
2021/07/12 06:44:33;;;;;;;26.55;22.33;;;20.90;99.90;;;;;;4977307;28;20410;-90
2021/07/12 06:46:58;;;;;;;21.88;19.45;;;21.00;99.90;;;;;;4959436;28;20378;-89
2021/07/12 06:49:24;;;;;;;27.17;20.52;;;21.00;99.90;;;;;;4957531;28;20125;-89
2021/07/12 06:51:50;;;;;;;23.70;19.85;;;21.10;99.90;;;;;;4979147;28;20421;-88
2021/07/12 06:54:17;;;;;;;26.52;20.10;;;21.20;99.90;;;;;;4975130;28;20050;-88
2021/07/12 06:56:43;;;;;;;28.23;19.35;;;21.20;99.90;;;;;;4941567;28;20054;-88
2021/07/12 06:59:09;;;;;;;26.98;20.95;;;21.30;99.90;;;;;;4957434;28;20055;-87
2021/07/12 07:01:35;;;;;;;26.92;22.35;;;21.30;99.90;;;;;;4963422;28;20402;-92
2021/07/12 07:04:04;;;;;;;31.02;23.58;;;21.30;99.90;;;;;;4996134;28;20499;-87
2021/07/12 07:06:29;;;;;;;37.55;25.10;;;21.40;99.90;;;;;;4974907;28;20482;-91
2021/07/12 07:08:55;;;;;;;30.92;23.83;;;21.50;99.90;;;;;;4941002;28;20060;-88
2021/07/12 07:11:22;;;;;;;47.58;29.75;;;21.50;99.90;;;;;;4991199;28;20042;-89
2021/07/12 07:13:47;;;;;;;45.03;31.10;;;21.50;99.90;;;;;;4957699;28;20128;-89
2021/07/12 07:16:13;;;;;;;62.67;38.47;;;21.70;99.90;;;;;;4974331;28;20101;-88
2021/07/12 07:18:39;;;;;;;62.05;38.85;;;21.70;99.90;;;;;;4973980;28;20057;-88
2021/07/12 07:21:05;;;;;;;63.60;39.63;;;21.60;99.90;;;;;;4961571;28;20478;-89
2021/07/12 07:23:31;;;;;;;57.60;37.55;;;21.60;99.90;;;;;;4983058;28;20034;-90
2021/07/12 07:25:57;;;;;;;46.42;34.33;;;21.50;99.90;;;;;;4954253;28;20045;-88
2021/07/12 07:28:22;;;;;;;46.45;35.63;;;21.50;99.90;;;;;;4981572;28;20071;-88
2021/07/12 07:30:50;;;;;;;51.47;33.63;;;21.60;99.90;;;;;;4964154;28;20108;-89
2021/07/12 07:33:16;;;;;;;56.42;33.08;;;21.60;99.90;;;;;;4987984;28;20050;-89
2021/07/12 07:35:42;;;;;;;55.28;36.78;;;21.70;99.90;;;;;;4982263;28;20753;-90
2021/07/12 07:38:08;;;;;;;43.53;33.38;;;21.80;99.90;;;;;;4975159;28;20070;-90
2021/07/12 07:40:33;;;;;;;33.92;26.33;;;22.00;99.90;;;;;;4969075;28;20042;-91
2021/07/12 07:42:59;;;;;;;37.42;27.98;;;22.10;99.90;;;;;;4975747;28;20046;-90
2021/07/12 07:45:25;;;;;;;27.88;22.00;;;22.30;99.90;;;;;;4967907;28;20057;-90
2021/07/12 07:47:51;;;;;;;31.10;23.58;;;22.20;99.90;;;;;;4989824;28;20096;-88
2021/07/12 07:50:18;;;;;;;31.73;25.40;;;22.40;99.90;;;;;;4986936;28;20493;-91
2021/07/12 07:52:44;;;;;;;28.77;24.23;;;22.50;99.90;;;;;;4974878;28;20145;-90
2021/07/12 07:55:12;;;;;;;31.23;25.67;;;22.70;99.90;;;;;;4995631;28;20136;-89
2021/07/12 07:57:42;;;;;;;35.67;27.23;;;22.70;99.90;;;;;;4965558;28;20038;-92
2021/07/12 08:00:12;;;;;;;36.95;30.00;;;23.10;99.90;;;;;;4983103;28;20049;-91
2021/07/12 08:02:38;;;;;;;25.20;20.60;;;23.10;99.90;;;;;;4972067;28;20041;-93
2021/07/12 08:05:06;;;;;;;28.90;21.95;;;23.20;99.90;;;;;;4946197;28;20061;-93
2021/07/12 08:07:33;;;;;;;27.50;23.23;;;23.10;99.90;;;;;;4984872;28;20050;-92
2021/07/12 08:09:59;;;;;;;25.80;22.05;;;23.20;99.90;;;;;;4967834;28;20066;-92
2021/07/12 08:12:25;;;;;;;27.92;22.55;;;23.20;99.90;;;;;;4956969;28;20053;-92
2021/07/12 08:14:54;;;;;;;27.73;21.83;;;23.30;99.90;;;;;;4994765;28;20046;-92
2021/07/12 08:17:19;;;;;;;24.38;21.17;;;23.60;99.90;;;;;;4971799;28;20513;-91
2021/07/12 08:19:45;;;;;;;24.50;19.38;;;23.70;99.90;;;;;;4945228;28;20047;-92
2021/07/12 08:22:11;;;;;;;23.13;19.33;;;23.80;99.90;;;;;;4977699;28;20058;-92
2021/07/12 08:24:39;;;;;;;22.60;18.17;;;23.90;99.90;;;;;;4992793;28;20125;-92
2021/07/12 08:27:05;;;;;;;21.70;19.40;;;24.10;99.90;;;;;;4976970;28;20054;-90
2021/07/12 08:29:31;;;;;;;20.90;17.92;;;24.10;99.90;;;;;;4977795;28;20521;-90
2021/07/12 08:31:59;;;;;;;22.25;18.98;;;24.20;99.90;;;;;;4992404;28;20057;-91
2021/07/12 08:34:25;;;;;;;23.42;19.45;;;24.20;99.90;;;;;;4973216;28;20266;-90
2021/07/12 08:36:53;;;;;;;23.17;19.83;;;24.10;99.90;;;;;;4992514;28;20046;-90
2021/07/12 08:39:20;;;;;;;23.98;19.27;;;24.00;99.90;;;;;;4975457;28;20489;-89
2021/07/12 08:41:46;;;;;;;23.77;19.35;;;24.10;99.90;;;;;;4991051;28;20045;-90
2021/07/12 08:44:13;;;;;;;21.75;18.30;;;24.20;99.90;;;;;;5003018;28;20494;-89
2021/07/12 08:46:38;;;;;;;24.65;18.52;;;24.30;99.90;;;;;;4960911;28;20053;-92
2021/07/12 08:49:04;;;;;;;20.42;16.33;;;24.50;99.90;;;;;;4990906;28;20042;-90
2021/07/12 08:51:30;;;;;;;21.67;17.73;;;24.60;99.90;;;;;;4974459;28;20046;-91
2021/07/12 08:53:56;;;;;;;20.38;18.17;;;24.90;99.90;;;;;;4958723;28;20046;-90
2021/07/12 08:56:23;;;;;;;20.85;17.08;;;25.10;99.90;;;;;;4971407;28;20675;-95
2021/07/12 08:58:54;;;;;;;20.70;17.25;;;25.20;99.90;;;;;;4962723;28;20061;-94
2021/07/12 09:01:22;;;;;;;30.50;19.33;;;25.30;99.90;;;;;;5012845;28;20117;-94
2021/07/12 09:03:51;;;;;;;23.23;19.02;;;25.10;99.90;;;;;;4991221;28;20657;-91
2021/07/12 09:06:23;;;;;;;25.90;17.80;;;25.00;99.90;;;;;;4983214;28;20042;-94
2021/07/12 09:08:51;;;;;;;18.75;16.73;;;24.80;99.90;;;;;;4971279;28;20061;-92
2021/07/12 09:11:31;;;;;;;19.02;17.02;;;24.70;99.90;;;;;;4973943;28;20050;-95
2021/07/12 09:14:07;;;;;;;20.27;16.42;;;24.60;99.90;;;;;;4965460;28;20179;-94
2021/07/12 09:16:35;;;;;;;15.75;14.15;;;24.50;99.90;;;;;;4964599;28;20043;-95
2021/07/12 09:19:13;;;;;;;18.27;15.17;;;24.40;99.90;;;;;;4965932;28;20054;-94
2021/07/12 09:22:00;;;;;;;16.73;14.98;;;24.60;99.90;;;;;;4951500;28;20603;-94
2021/07/12 09:24:28;;;;;;;17.33;15.50;;;24.90;99.90;;;;;;4958295;28;20054;-96
2021/07/12 09:27:04;;;;;;;18.88;16.45;;;25.00;99.90;;;;;;4958986;28;20495;-95
2021/07/12 09:29:36;;;;;;;16.80;14.35;;;25.20;99.90;;;;;;4972388;28;20042;-94
2021/07/12 09:32:06;;;;;;;16.58;13.38;;;25.30;99.90;;;;;;4962449;28;20035;-94
2021/07/12 09:34:38;;;;;;;16.67;14.88;;;25.40;99.90;;;;;;4959995;28;20395;-94
2021/07/12 09:37:10;;;;;;;16.73;15.02;;;25.30;99.90;;;;;;4958750;28;20035;-93
2021/07/12 09:39:46;;;;;;;16.75;15.15;;;25.10;99.90;;;;;;4970182;28;20047;-95
2021/07/12 09:42:17;;;;;;;17.42;15.13;;;25.00;99.90;;;;;;4976142;28;20050;-92
2021/07/12 09:44:49;;;;;;;17.38;15.65;;;24.90;99.90;;;;;;4963352;28;20050;-95
2021/07/12 09:47:19;;;;;;;16.35;14.65;;;24.90;99.90;;;;;;4966184;28;20053;-90
2021/07/12 09:49:49;;;;;;;18.58;16.63;;;25.00;99.90;;;;;;4960827;28;20254;-89
2021/07/12 09:52:17;;;;;;;18.15;16.20;;;25.20;99.90;;;;;;4947683;28;20093;-90
2021/07/12 09:54:46;;;;;;;18.08;16.10;;;25.20;99.90;;;;;;4953647;28;20047;-91
2021/07/12 09:57:17;;;;;;;16.47;14.83;;;25.50;99.90;;;;;;4975938;28;20072;-90
2021/07/12 09:59:52;;;;;;;19.70;17.60;;;25.50;99.90;;;;;;4970647;28;20034;-93
2021/07/12 10:02:20;;;;;;;18.38;16.40;;;25.40;99.90;;;;;;4958402;28;20042;-88
2021/07/12 10:04:46;;;;;;;22.02;14.75;;;25.20;99.90;;;;;;4961080;28;20070;-90
2021/07/12 10:07:12;;;;;;;18.60;15.13;;;25.20;99.90;;;;;;4956075;28;20418;-89
2021/07/12 10:09:38;;;;;;;16.77;14.73;;;25.50;99.90;;;;;;4967991;28;20050;-88
2021/07/12 10:12:05;;;;;;;19.52;17.55;;;25.70;99.90;;;;;;4976295;28;20055;-89
2021/07/12 10:14:31;;;;;;;17.42;15.55;;;25.90;99.90;;;;;;4971981;28;20410;-88
2021/07/12 10:16:57;;;;;;;15.35;13.65;;;25.90;99.90;;;;;;4979604;28;20039;-87
2021/07/12 10:19:22;;;;;;;16.95;15.07;;;25.80;99.90;;;;;;4976562;28;20042;-87
2021/07/12 10:21:52;;;;;;;18.60;15.43;;;25.90;99.90;;;;;;4973379;28;20042;-89
2021/07/12 10:24:27;;;;;;;17.30;15.48;;;26.00;99.90;;;;;;4975241;28;20077;-89
2021/07/12 10:26:59;;;;;;;18.17;15.82;;;26.10;99.90;;;;;;4954169;28;20043;-90
2021/07/12 10:29:37;;;;;;;16.95;15.25;;;26.10;99.90;;;;;;4971466;28;20051;-87
2021/07/12 10:32:06;;;;;;;20.73;16.77;;;26.00;99.90;;;;;;4926512;28;20105;-86
2021/07/12 10:34:47;;;;;;;20.25;16.73;;;26.30;99.90;;;;;;4959841;28;20058;-87
2021/07/12 10:37:19;;;;;;;18.00;16.10;;;26.40;99.90;;;;;;4972632;28;20042;-88
2021/07/12 10:39:59;;;;;;;20.95;18.65;;;26.70;99.90;;;;;;4979301;28;20066;-88
2021/07/12 10:42:51;;;;;;;16.58;14.88;;;26.70;99.90;;;;;;4984948;28;20044;-87
2021/07/12 10:45:34;;;;;;;19.00;16.90;;;26.80;99.90;;;;;;4980220;28;20047;-89
2021/07/12 10:48:08;;;;;;;22.17;18.45;;;27.10;99.90;;;;;;4975912;28;20705;-88
2021/07/12 10:50:38;;;;;;;21.42;19.27;;;27.20;99.90;;;;;;4986902;28;20062;-88
2021/07/12 10:53:26;;;;;;;23.88;19.73;;;26.80;99.90;;;;;;4967654;28;20494;-88
2021/07/12 10:55:58;;;;;;;18.77;16.03;;;26.50;99.90;;;;;;4971919;28;20377;-90
2021/07/12 10:58:26;;;;;;;22.98;20.55;;;26.50;99.90;;;;;;4968157;28;20078;-87
2021/07/12 11:00:56;;;;;;;;;;;26.40;99.90;;;;;;4972865;28;20038;-90
2021/07/12 11:03:43;;;;;;;28.48;23.63;;;26.30;99.90;;;;;;4969758;28;20437;-87
2021/07/12 11:06:10;;;;;;;21.30;18.95;;;26.40;99.90;;;;;;4980239;28;20534;-89
2021/07/12 11:08:46;;;;;;;21.52;17.40;;;26.40;99.90;;;;;;4958060;28;20478;-90
2021/07/12 11:11:39;;;;;;;25.05;22.45;;;26.70;99.90;;;;;;4968789;28;20097;-88
2021/07/12 11:14:09;;;;;;;24.85;21.88;;;26.70;99.90;;;;;;4960291;28;20063;-87
2021/07/12 11:16:36;;;;;;;;;;;26.80;99.90;;;;;;4947684;28;20054;-87
2021/07/12 11:19:21;;;;;;;;;;;26.70;99.90;;;;;;4971759;28;19953;-88
2021/07/12 11:21:47;;;;;;;;;;;26.50;99.90;;;;;;4979112;28;19937;-90
2021/07/12 11:24:20;;;;;;;;;;;26.60;99.90;;;;;;4972087;28;19918;-88
2021/07/12 11:26:50;;;;;;;;;;;26.60;99.90;;;;;;4973658;28;19930;-88
2021/07/12 11:29:48;;;;;;;;;;;26.80;99.90;;;;;;4969475;28;19926;-89
2021/07/12 11:32:14;;;;;;;;;;;26.90;99.90;;;;;;4962075;28;19960;-89
2021/07/12 11:34:45;;;;;;;;;;;27.10;99.90;;;;;;4971506;28;19926;-88
2021/07/12 11:37:11;;;;;;;;;;;27.00;99.90;;;;;;4971398;28;20282;-88
2021/07/12 11:39:37;;;;;;;;;;;27.50;99.90;;;;;;4970243;28;19922;-92
2021/07/12 11:42:14;;;;;;;;;;;27.80;99.90;;;;;;4969327;28;19922;-92
2021/07/12 11:44:50;;;;;;;;;;;28.00;99.90;;;;;;4982357;28;19974;-88
2021/07/12 11:47:17;;;;;;;;;;;28.10;99.90;;;;;;4979194;28;19957;-89
2021/07/12 11:49:52;;;;;;;;;;;28.30;99.90;;;;;;4976161;28;19926;-89
2021/07/12 11:52:18;;;;;;;;;;;28.70;99.90;;;;;;4951698;28;19933;-91
2021/07/12 11:54:44;;;;;;;;;;;29.00;99.90;;;;;;4981450;28;19978;-92
2021/07/12 11:57:14;;;;;;;;;;;29.10;99.90;;;;;;4996883;28;19926;-88
2021/07/12 11:59:41;;;;;;;;;;;29.10;99.90;;;;;;4966521;28;19926;-91
2021/07/12 12:02:12;;;;;;;;;;;29.10;99.90;;;;;;4970385;28;19957;-92
2021/07/12 12:04:45;;;;;;;;;;;29.30;99.90;;;;;;4969356;28;20350;-87
2021/07/12 12:07:20;;;;;;;;;;;29.60;99.90;;;;;;4967033;28;19922;-88
2021/07/12 12:09:53;;;;;;;;;;;29.80;99.90;;;;;;4981297;28;20338;-90
2021/07/12 12:12:23;;;;;;;;;;;29.80;99.90;;;;;;4970531;28;20358;-89
2021/07/12 12:14:48;;;;;;;;;;;29.70;99.90;;;;;;4970174;28;19926;-89
2021/07/12 12:17:14;;;;;;;;;;;29.80;99.90;;;;;;4953650;28;19933;-94
2021/07/12 12:19:40;;;;;;;;;;;29.90;99.90;;;;;;4982945;28;19922;-91
2021/07/12 12:22:05;;;;;;;;;;;29.50;99.90;;;;;;4973640;28;20303;-93
2021/07/12 12:24:34;;;;;;;;;;;29.60;99.90;;;;;;4974408;28;19981;-96
2021/07/12 12:27:00;;;;;;;;;;;29.70;99.90;;;;;;4980553;28;19921;-93
2021/07/12 12:29:26;;;;;;;;;;;29.80;99.90;;;;;;4964690;28;20267;-90
2021/07/12 12:31:51;;;;;;;;;;;29.70;99.90;;;;;;4971693;28;20015;-92
2021/07/12 12:34:18;;;;;;;;;;;29.70;99.90;;;;;;4970187;28;19937;-94
2021/07/12 12:36:43;;;;;;;;;;;29.70;99.90;;;;;;4974634;28;19922;-91
2021/07/12 12:39:13;;;;;;;;;;;29.70;99.90;;;;;;4973925;28;20282;-87
2021/07/12 12:41:45;;;;;;;;;;;29.60;99.90;;;;;;4988367;28;19922;-93
2021/07/12 12:44:15;;;;;;;;;;;29.50;99.90;;;;;;4973077;28;19922;-93
2021/07/12 12:46:48;;;;;;;;;;;29.10;99.90;;;;;;4972181;28;19948;-92
2021/07/12 12:49:16;;;;;;;;;;;28.80;99.90;;;;;;4982701;28;19929;-92
2021/07/12 12:51:48;;;;;;;;;;;28.80;99.90;;;;;;4990167;28;19961;-92